Yamato — JD2252 — position and weather

sailwx.info

Track history (hours):
 
Tides and Currents Weather Stations Pressure Air Temp Water Temp Dewpoint Dewpoint Depression Visibility Wind Speed Wind Dir Waves Ship Positions

Yamato

Last reported at 2015-May-27 07:34 UTC. Time now 2015-May-27 07:46 UTC.
Position N 35°24' E 139°41'.

Length 40 m; draft 3.6 m.

Type: Tug. MMSI: 431101141.

Date/timePositionNaut miles runAvg speedWind from/ knotsBaromVisibWave heightAir tempDewpointWater temp
2015-May-27 07:34N 35°24' E 139°41'3 3.0
2015-May-27 06:33N 35°27' E 139°40'0 0.0
2015-May-27 05:33N 35°27' E 139°40'2 2.2
2015-May-27 04:34N 35°25' E 139°42'2 2.5
2015-May-27 03:33N 35°23' E 139°41'3 3.2
2015-May-27 02:33N 35°26' E 139°42'2 1.8
2015-May-27 01:34N 35°27' E 139°40'0 0.0
2015-May-27 00:34N 35°27' E 139°40'0 0.0
2015-May-26 23:33N 35°27' E 139°40'1 0.0
2015-May-25 22:33N 35°27' E 139°41'1 1.1
2015-May-25 21:33N 35°27' E 139°42'0 0.0
2015-May-25 20:33N 35°27' E 139°42'1 1.3
2015-May-25 19:33N 35°27' E 139°41'1 0.6
2015-May-25 18:33N 35°28' E 139°40'0 0.0
2015-May-25 17:33N 35°28' E 139°40'0 0.0
2015-May-25 16:33N 35°28' E 139°40'0 0.0
2015-May-25 15:33N 35°28' E 139°40'1 1.3
2015-May-25 14:33N 35°26' E 139°41'1 0.9
2015-May-25 13:33N 35°27' E 139°42'0 0.0
2015-May-25 12:33N 35°27' E 139°42'0 0.0
2015-May-25 11:33N 35°27' E 139°42'3 2.8
2015-May-25 10:33N 35°29' E 139°44'2 2.0
2015-May-25 09:33N 35°27' E 139°45'1 1.1
2015-May-25 08:33N 35°28' E 139°45'2 1.6
2015-May-25 07:33N 35°28' E 139°43'3 3.0
2015-May-25 06:33N 35°27' E 139°40'0 0.0
2015-May-25 05:33N 35°27' E 139°40'0 0.0
2015-May-25 04:33N 35°27' E 139°40'0 0.0
2015-May-25 03:33N 35°27' E 139°40'0 0.0
2015-May-25 02:33N 35°27' E 139°40'0 0.0
2015-May-25 01:33N 35°27' E 139°40'0 0.0
2015-May-25 00:33N 35°27' E 139°40'0 0.0
2015-May-24 23:33N 35°27' E 139°40'0 0.0
2015-May-24 22:33N 35°27' E 139°40'0 0.0
2015-May-24 21:33N 35°27' E 139°40'0 0.0
2015-May-24 20:33N 35°27' E 139°40'0 0.0
2015-May-24 19:33N 35°27' E 139°40'0 0.0
2015-May-24 18:33N 35°27' E 139°40'0 0.0
2015-May-24 17:33N 35°27' E 139°40'0 0.0
2015-May-24 16:33N 35°27' E 139°40'0 0.0
2015-May-24 15:33N 35°27' E 139°40'0 0.0
2015-May-24 14:33N 35°27' E 139°40'0 0.0
2015-May-24 13:33N 35°27' E 139°40'0 0.0
2015-May-24 12:34N 35°27' E 139°40'0 0.0
2015-May-24 11:33N 35°27' E 139°40'0 0.0
2015-May-24 10:33N 35°27' E 139°40'0 0.0
2015-May-24 09:33N 35°27' E 139°40'0 0.0
2015-May-24 08:34N 35°27' E 139°40'0 0.0
2015-May-24 07:33N 35°27' E 139°40'0 0.0
2015-May-24 06:33N 35°27' E 139°40'0 0.0
2015-May-24 05:33N 35°27' E 139°40'0 0.0
2015-May-24 04:34N 35°27' E 139°40'0 0.0
2015-May-24 03:33N 35°27' E 139°40'0 0.0
2015-May-24 02:34N 35°27' E 139°40'0 0.0
2015-May-24 01:33N 35°27' E 139°40'0 0.0
2015-May-24 00:33N 35°27' E 139°40'0 0.1
2015-May-23 23:34N 35°27' E 139°39'2 2.2
2015-May-23 22:33N 35°26' E 139°42'2 2.2
2015-May-23 21:33N 35°27' E 139°40'2 0.2
2015-May-23 13:18N 35°27' E 139°41'1 1.9
2015-May-23 12:33N 35°25' E 139°41'1 0.8
2015-May-23 11:33N 35°26' E 139°42'4 3.6
2015-May-23 10:33N 35°29' E 139°42'2 1.7
2015-May-23 09:34N 35°28' E 139°41'1 0.8
2015-May-23 08:34N 35°28' E 139°41'1 0.5
2015-May-23 07:33N 35°28' E 139°42'0 0.0
2015-May-23 06:33N 35°28' E 139°42'0 0.0
2015-May-23 05:33N 35°28' E 139°42'2 1.5
2015-May-23 04:33N 35°26' E 139°41'1 1.2
2015-May-23 03:33N 35°27' E 139°40'0 0.0
2015-May-23 02:33N 35°27' E 139°40'0 0.0
2015-May-23 01:33N 35°27' E 139°40'0 0.0
2015-May-23 00:33N 35°27' E 139°40'0 0.0
2015-May-22 23:33N 35°27' E 139°40'1 0.5
2015-May-22 22:33N 35°27' E 139°40'2 1.9
2015-May-22 21:33N 35°28' E 139°42'2 2.2
2015-May-22 20:33N 35°27' E 139°40'0 0.0
2015-May-22 19:33N 35°27' E 139°40'0 0.0
2015-May-22 18:33N 35°27' E 139°40'0 0.0
2015-May-22 17:33N 35°27' E 139°40'0 0.0
2015-May-22 16:33N 35°27' E 139°40'0 0.0
2015-May-22 15:33N 35°27' E 139°40'0 0.0
2015-May-22 14:33N 35°27' E 139°40'0 0.0
2015-May-22 13:33N 35°27' E 139°40'0 0.0
2015-May-22 12:33N 35°27' E 139°40'0 0.0
2015-May-22 11:33N 35°27' E 139°40'0 0.0
2015-May-22 10:33N 35°27' E 139°40'0 0.0
2015-May-22 09:33N 35°27' E 139°40'0 0.0
2015-May-22 08:33N 35°27' E 139°40'0 0.0
2015-May-22 07:33N 35°27' E 139°40'0 0.0
2015-May-22 06:33N 35°27' E 139°40'1 0.7
2015-May-22 05:34N 35°27' E 139°40'1 0.9
2015-May-22 04:33N 35°27' E 139°39'0 0.0
2015-May-22 03:33N 35°27' E 139°39'0 0.0
2015-May-22 02:33N 35°27' E 139°39'0 0.0
2015-May-22 01:33N 35°27' E 139°39'0 0.0
2015-May-22 00:33N 35°27' E 139°39'0 0.0
2015-May-21 23:33N 35°27' E 139°39'3 3.1
2015-May-21 22:33N 35°29' E 139°42'0 0.3
2015-May-21 21:33N 35°29' E 139°43'3 2.9
2015-May-21 20:33N 35°27' E 139°40'1 0.0
2015-May-21 07:11N 35°27' E 139°40'0 0.0
2015-May-21 06:33N 35°27' E 139°40'0 0.0
2015-May-21 05:33N 35°27' E 139°40'0 0.0
2015-May-21 04:33N 35°27' E 139°40'0 0.0
2015-May-21 03:33N 35°27' E 139°40'1 0.7
2015-May-21 02:34N 35°27' E 139°40'3 2.8
2015-May-21 01:33N 35°25' E 139°42'4 3.5
2015-May-21 00:33N 35°27' E 139°39'2 2.1
2015-May-20 23:33N 35°28' E 139°41'2 2.1
2015-May-20 22:33N 35°30' E 139°44'4 3.7
2015-May-20 21:34N 35°28' E 139°48'7 6.6
2015-May-20 20:33N 35°27' E 139°40'0 0.0
2015-May-20 09:23N 35°27' E 139°40'4 5.0
2015-May-20 08:34N 35°30' E 139°43'0 0.4
2015-May-20 07:33N 35°29' E 139°43'1 0.9
2015-May-20 06:33N 35°30' E 139°44'3 3.5
2015-May-20 05:33N 35°27' E 139°42'0 0.0
2015-May-20 04:34N 35°27' E 139°42'0 0.0
2015-May-20 03:33N 35°27' E 139°42'0 0.0
2015-May-20 02:33N 35°27' E 139°42'0 0.0
2015-May-20 01:34N 35°27' E 139°42'0 0.0
2015-May-20 00:34N 35°27' E 139°42'0 0.0
2015-May-19 23:34N 35°27' E 139°42'5 4.9
2015-May-19 22:33N 35°30' E 139°47'3 3.1
2015-May-19 21:33N 35°27' E 139°45'4 4.3
2015-May-19 20:34N 35°27' E 139°40'0 0.0
2015-May-19 19:33N 35°27' E 139°40'0 0.0
2015-May-19 18:34N 35°27' E 139°40'0 0.0
2015-May-19 17:34N 35°27' E 139°40'0 0.0
2015-May-19 16:33N 35°27' E 139°40'0 0.0
2015-May-19 15:34N 35°27' E 139°40'0 0.0
2015-May-19 14:34N 35°27' E 139°40'0 0.0
2015-May-19 13:33N 35°27' E 139°40'0 0.0
2015-May-19 12:34N 35°27' E 139°40'0 0.0
2015-May-19 11:33N 35°27' E 139°40'1 0.6
2015-May-19 10:33N 35°27' E 139°40'4 3.6
2015-May-19 09:33N 35°26' E 139°44'4 3.6
2015-May-19 08:33N 35°28' E 139°40'0 0.0
2015-May-19 07:34N 35°28' E 139°40'4 3.6
2015-May-19 06:33N 35°30' E 139°44'2 1.8
2015-May-19 05:34N 35°30' E 139°46'4 3.8
2015-May-19 04:33N 35°29' E 139°42'2 2.4
2015-May-19 03:33N 35°27' E 139°40'0 0.3
2015-May-19 02:33N 35°27' E 139°40'0 0.0
2015-May-19 01:33N 35°27' E 139°40'0 0.0
2015-May-19 00:34N 35°27' E 139°40'0 0.0
2015-May-18 23:33N 35°27' E 139°40'0 0.0
2015-May-18 22:33N 35°27' E 139°40'0 0.0
2015-May-18 21:33N 35°27' E 139°40'0 0.0
2015-May-18 20:33N 35°27' E 139°40'0 0.0
2015-May-18 19:33N 35°27' E 139°40'0 0.0
2015-May-18 18:33N 35°27' E 139°40'0 0.0
2015-May-18 17:33N 35°27' E 139°40'0 0.0
2015-May-18 16:33N 35°27' E 139°40'0 0.0
2015-May-18 15:33N 35°27' E 139°40'0 0.0
2015-May-18 14:33N 35°27' E 139°40'0 0.0
2015-May-18 13:34N 35°27' E 139°40'0 0.0
2015-May-18 12:34N 35°27' E 139°40'0 0.0
2015-May-18 11:33N 35°27' E 139°40'0 0.0
2015-May-18 10:33N 35°27' E 139°40'0 0.0
2015-May-18 09:34N 35°27' E 139°40'0 0.0
2015-May-18 08:33N 35°27' E 139°40'0 0.0
2015-May-18 07:34N 35°27' E 139°40'0 0.0
2015-May-18 06:34N 35°27' E 139°40'0 0.0
2015-May-18 05:33N 35°27' E 139°40'0 0.0
2015-May-18 04:33N 35°27' E 139°40'0 0.0
2015-May-18 03:34N 35°27' E 139°40'0 0.0
2015-May-18 02:34N 35°27' E 139°40'0 0.0
2015-May-18 01:33N 35°27' E 139°40'0 0.0
2015-May-18 00:34N 35°27' E 139°40'0 0.0
2015-May-17 23:34N 35°27' E 139°40'2 2.0
2015-May-17 22:34N 35°25' E 139°41'1 0.6
2015-May-17 21:33N 35°25' E 139°42'3 3.0
2015-May-17 20:34N 35°28' E 139°41'1 0.6
2015-May-17 19:34N 35°28' E 139°40'0 0.0
2015-May-17 18:33N 35°28' E 139°40'2 2.1
2015-May-17 17:33N 35°26' E 139°42'2 1.8
2015-May-17 16:34N 35°24' E 139°41'2 1.7
2015-May-17 15:34N 35°26' E 139°42'0 0.0
2015-May-17 14:33N 35°26' E 139°42'0 0.0
2015-May-17 13:33N 35°26' E 139°42'0 0.0
2015-May-17 12:33N 35°26' E 139°42'0 0.0
2015-May-17 11:33N 35°26' E 139°42'0 0.0
2015-May-17 10:34N 35°26' E 139°42'1 0.9
2015-May-17 09:33N 35°26' E 139°42'2 2.2
2015-May-17 08:34N 35°27' E 139°39'  
Track history (hours):
 
Tides and Currents Weather Stations Pressure Air Temp Water Temp Dewpoint Dewpoint Depression Visibility Wind Speed Wind Dir Waves Ship Positions

Yamato

Last reported at 2015-May-27 07:34 UTC. Time now 2015-May-27 07:46 UTC.
Position N 35°24' E 139°41'.

Length 40 m; draft 3.6 m.

Type: Tug. MMSI: 431101141.

Date/timePositionNaut miles runAvg speedWind from/ knotsBaromVisibWave heightAir tempDewpointWater temp
2015-May-27 07:34N 35°24' E 139°41'3 3.0
2015-May-27 06:33N 35°27' E 139°40'0 0.0
2015-May-27 05:33N 35°27' E 139°40'2 2.2
2015-May-27 04:34N 35°25' E 139°42'2 2.5
2015-May-27 03:33N 35°23' E 139°41'3 3.2
2015-May-27 02:33N 35°26' E 139°42'2 1.8
2015-May-27 01:34N 35°27' E 139°40'0 0.0
2015-May-27 00:34N 35°27' E 139°40'0 0.0
2015-May-26 23:33N 35°27' E 139°40'1 0.0
2015-May-25 22:33N 35°27' E 139°41'1 1.1
2015-May-25 21:33N 35°27' E 139°42'0 0.0
2015-May-25 20:33N 35°27' E 139°42'1 1.3
2015-May-25 19:33N 35°27' E 139°41'1 0.6
2015-May-25 18:33N 35°28' E 139°40'0 0.0
2015-May-25 17:33N 35°28' E 139°40'0 0.0
2015-May-25 16:33N 35°28' E 139°40'0 0.0
2015-May-25 15:33N 35°28' E 139°40'1 1.3
2015-May-25 14:33N 35°26' E 139°41'1 0.9
2015-May-25 13:33N 35°27' E 139°42'0 0.0
2015-May-25 12:33N 35°27' E 139°42'0 0.0
2015-May-25 11:33N 35°27' E 139°42'3 2.8
2015-May-25 10:33N 35°29' E 139°44'2 2.0
2015-May-25 09:33N 35°27' E 139°45'1 1.1
2015-May-25 08:33N 35°28' E 139°45'2 1.6
2015-May-25 07:33N 35°28' E 139°43'3 3.0
2015-May-25 06:33N 35°27' E 139°40'0 0.0
2015-May-25 05:33N 35°27' E 139°40'0 0.0
2015-May-25 04:33N 35°27' E 139°40'0 0.0
2015-May-25 03:33N 35°27' E 139°40'0 0.0
2015-May-25 02:33N 35°27' E 139°40'0 0.0
2015-May-25 01:33N 35°27' E 139°40'0 0.0
2015-May-25 00:33N 35°27' E 139°40'0 0.0
2015-May-24 23:33N 35°27' E 139°40'0 0.0
2015-May-24 22:33N 35°27' E 139°40'0 0.0
2015-May-24 21:33N 35°27' E 139°40'0 0.0
2015-May-24 20:33N 35°27' E 139°40'0 0.0
2015-May-24 19:33N 35°27' E 139°40'0 0.0
2015-May-24 18:33N 35°27' E 139°40'0 0.0
2015-May-24 17:33N 35°27' E 139°40'0 0.0
2015-May-24 16:33N 35°27' E 139°40'0 0.0
2015-May-24 15:33N 35°27' E 139°40'0 0.0
2015-May-24 14:33N 35°27' E 139°40'0 0.0
2015-May-24 13:33N 35°27' E 139°40'0 0.0
2015-May-24 12:34N 35°27' E 139°40'0 0.0
2015-May-24 11:33N 35°27' E 139°40'0 0.0
2015-May-24 10:33N 35°27' E 139°40'0 0.0
2015-May-24 09:33N 35°27' E 139°40'0 0.0
2015-May-24 08:34N 35°27' E 139°40'0 0.0
2015-May-24 07:33N 35°27' E 139°40'0 0.0
2015-May-24 06:33N 35°27' E 139°40'0 0.0
2015-May-24 05:33N 35°27' E 139°40'0 0.0
2015-May-24 04:34N 35°27' E 139°40'0 0.0
2015-May-24 03:33N 35°27' E 139°40'0 0.0
2015-May-24 02:34N 35°27' E 139°40'0 0.0
2015-May-24 01:33N 35°27' E 139°40'0 0.0
2015-May-24 00:33N 35°27' E 139°40'0 0.1
2015-May-23 23:34N 35°27' E 139°39'2 2.2
2015-May-23 22:33N 35°26' E 139°42'2 2.2
2015-May-23 21:33N 35°27' E 139°40'2 0.2
2015-May-23 13:18N 35°27' E 139°41'1 1.9
2015-May-23 12:33N 35°25' E 139°41'1 0.8
2015-May-23 11:33N 35°26' E 139°42'4 3.6
2015-May-23 10:33N 35°29' E 139°42'2 1.7
2015-May-23 09:34N 35°28' E 139°41'1 0.8
2015-May-23 08:34N 35°28' E 139°41'1 0.5
2015-May-23 07:33N 35°28' E 139°42'0 0.0
2015-May-23 06:33N 35°28' E 139°42'0 0.0
2015-May-23 05:33N 35°28' E 139°42'2 1.5
2015-May-23 04:33N 35°26' E 139°41'1 1.2
2015-May-23 03:33N 35°27' E 139°40'0 0.0
2015-May-23 02:33N 35°27' E 139°40'0 0.0
2015-May-23 01:33N 35°27' E 139°40'0 0.0
2015-May-23 00:33N 35°27' E 139°40'0 0.0
2015-May-22 23:33N 35°27' E 139°40'1 0.5
2015-May-22 22:33N 35°27' E 139°40'2 1.9
2015-May-22 21:33N 35°28' E 139°42'2 2.2
2015-May-22 20:33N 35°27' E 139°40'0 0.0
2015-May-22 19:33N 35°27' E 139°40'0 0.0
2015-May-22 18:33N 35°27' E 139°40'0 0.0
2015-May-22 17:33N 35°27' E 139°40'0 0.0
2015-May-22 16:33N 35°27' E 139°40'0 0.0
2015-May-22 15:33N 35°27' E 139°40'0 0.0
2015-May-22 14:33N 35°27' E 139°40'0 0.0
2015-May-22 13:33N 35°27' E 139°40'0 0.0
2015-May-22 12:33N 35°27' E 139°40'0 0.0
2015-May-22 11:33N 35°27' E 139°40'0 0.0
2015-May-22 10:33N 35°27' E 139°40'0 0.0
2015-May-22 09:33N 35°27' E 139°40'0 0.0
2015-May-22 08:33N 35°27' E 139°40'0 0.0
2015-May-22 07:33N 35°27' E 139°40'0 0.0
2015-May-22 06:33N 35°27' E 139°40'1 0.7
2015-May-22 05:34N 35°27' E 139°40'1 0.9
2015-May-22 04:33N 35°27' E 139°39'0 0.0
2015-May-22 03:33N 35°27' E 139°39'0 0.0
2015-May-22 02:33N 35°27' E 139°39'0 0.0
2015-May-22 01:33N 35°27' E 139°39'0 0.0
2015-May-22 00:33N 35°27' E 139°39'0 0.0
2015-May-21 23:33N 35°27' E 139°39'3 3.1
2015-May-21 22:33N 35°29' E 139°42'0 0.3
2015-May-21 21:33N 35°29' E 139°43'3 2.9
2015-May-21 20:33N 35°27' E 139°40'1 0.0
2015-May-21 07:11N 35°27' E 139°40'0 0.0
2015-May-21 06:33N 35°27' E 139°40'0 0.0
2015-May-21 05:33N 35°27' E 139°40'0 0.0
2015-May-21 04:33N 35°27' E 139°40'0 0.0
2015-May-21 03:33N 35°27' E 139°40'1 0.7
2015-May-21 02:34N 35°27' E 139°40'3 2.8
2015-May-21 01:33N 35°25' E 139°42'4 3.5
2015-May-21 00:33N 35°27' E 139°39'2 2.1
2015-May-20 23:33N 35°28' E 139°41'2 2.1
2015-May-20 22:33N 35°30' E 139°44'4 3.7
2015-May-20 21:34N 35°28' E 139°48'7 6.6
2015-May-20 20:33N 35°27' E 139°40'0 0.0
2015-May-20 09:23N 35°27' E 139°40'4 5.0
2015-May-20 08:34N 35°30' E 139°43'0 0.4
2015-May-20 07:33N 35°29' E 139°43'1 0.9
2015-May-20 06:33N 35°30' E 139°44'3 3.5
2015-May-20 05:33N 35°27' E 139°42'0 0.0
2015-May-20 04:34N 35°27' E 139°42'0 0.0
2015-May-20 03:33N 35°27' E 139°42'0 0.0
2015-May-20 02:33N 35°27' E 139°42'0 0.0
2015-May-20 01:34N 35°27' E 139°42'0 0.0
2015-May-20 00:34N 35°27' E 139°42'0 0.0
2015-May-19 23:34N 35°27' E 139°42'5 4.9
2015-May-19 22:33N 35°30' E 139°47'3 3.1
2015-May-19 21:33N 35°27' E 139°45'4 4.3
2015-May-19 20:34N 35°27' E 139°40'0 0.0
2015-May-19 19:33N 35°27' E 139°40'0 0.0
2015-May-19 18:34N 35°27' E 139°40'0 0.0
2015-May-19 17:34N 35°27' E 139°40'0 0.0
2015-May-19 16:33N 35°27' E 139°40'0 0.0
2015-May-19 15:34N 35°27' E 139°40'0 0.0
2015-May-19 14:34N 35°27' E 139°40'0 0.0
2015-May-19 13:33N 35°27' E 139°40'0 0.0
2015-May-19 12:34N 35°27' E 139°40'0 0.0
2015-May-19 11:33N 35°27' E 139°40'1 0.6
2015-May-19 10:33N 35°27' E 139°40'4 3.6
2015-May-19 09:33N 35°26' E 139°44'4 3.6
2015-May-19 08:33N 35°28' E 139°40'0 0.0
2015-May-19 07:34N 35°28' E 139°40'4 3.6
2015-May-19 06:33N 35°30' E 139°44'2 1.8
2015-May-19 05:34N 35°30' E 139°46'4 3.8
2015-May-19 04:33N 35°29' E 139°42'2 2.4
2015-May-19 03:33N 35°27' E 139°40'0 0.3
2015-May-19 02:33N 35°27' E 139°40'0 0.0
2015-May-19 01:33N 35°27' E 139°40'0 0.0
2015-May-19 00:34N 35°27' E 139°40'0 0.0
2015-May-18 23:33N 35°27' E 139°40'0 0.0
2015-May-18 22:33N 35°27' E 139°40'0 0.0
2015-May-18 21:33N 35°27' E 139°40'0 0.0
2015-May-18 20:33N 35°27' E 139°40'0 0.0
2015-May-18 19:33N 35°27' E 139°40'0 0.0
2015-May-18 18:33N 35°27' E 139°40'0 0.0
2015-May-18 17:33N 35°27' E 139°40'0 0.0
2015-May-18 16:33N 35°27' E 139°40'0 0.0
2015-May-18 15:33N 35°27' E 139°40'0 0.0
2015-May-18 14:33N 35°27' E 139°40'0 0.0
2015-May-18 13:34N 35°27' E 139°40'0 0.0
2015-May-18 12:34N 35°27' E 139°40'0 0.0
2015-May-18 11:33N 35°27' E 139°40'0 0.0
2015-May-18 10:33N 35°27' E 139°40'0 0.0
2015-May-18 09:34N 35°27' E 139°40'0 0.0
2015-May-18 08:33N 35°27' E 139°40'0 0.0
2015-May-18 07:34N 35°27' E 139°40'0 0.0
2015-May-18 06:34N 35°27' E 139°40'0 0.0
2015-May-18 05:33N 35°27' E 139°40'0 0.0
2015-May-18 04:33N 35°27' E 139°40'0 0.0
2015-May-18 03:34N 35°27' E 139°40'0 0.0
2015-May-18 02:34N 35°27' E 139°40'0 0.0
2015-May-18 01:33N 35°27' E 139°40'0 0.0
2015-May-18 00:34N 35°27' E 139°40'0 0.0
2015-May-17 23:34N 35°27' E 139°40'2 2.0
2015-May-17 22:34N 35°25' E 139°41'1 0.6
2015-May-17 21:33N 35°25' E 139°42'3 3.0
2015-May-17 20:34N 35°28' E 139°41'1 0.6
2015-May-17 19:34N 35°28' E 139°40'0 0.0
2015-May-17 18:33N 35°28' E 139°40'2 2.1
2015-May-17 17:33N 35°26' E 139°42'2 1.8
2015-May-17 16:34N 35°24' E 139°41'2 1.7
2015-May-17 15:34N 35°26' E 139°42'0 0.0
2015-May-17 14:33N 35°26' E 139°42'0 0.0
2015-May-17 13:33N 35°26' E 139°42'0 0.0
2015-May-17 12:33N 35°26' E 139°42'0 0.0
2015-May-17 11:33N 35°26' E 139°42'0 0.0
2015-May-17 10:34N 35°26' E 139°42'1 0.9
2015-May-17 09:33N 35°26' E 139°42'2 2.2
2015-May-17 08:34N 35°27' E 139°39'  

Dump ship's entire track history